sensor_id;sensor_type;location;lat;lon;timestamp;pressure;altitude;pressure_sealevel;temperature;humidity
68399;BME280;56258;52.196;13.868;2023-01-27T00:00:34;101741.06;;;19.56;33.19
68399;BME280;56258;52.196;13.868;2023-01-27T00:03:01;101735.94;;;19.53;33.20
68399;BME280;56258;52.196;13.868;2023-01-27T00:05:28;101742.06;;;19.55;33.12
68399;BME280;56258;52.196;13.868;2023-01-27T00:07:54;101743.19;;;19.52;33.00
68399;BME280;56258;52.196;13.868;2023-01-27T00:10:25;101736.28;;;19.50;33.29
68399;BME280;56258;52.196;13.868;2023-01-27T00:12:52;101734.25;;;19.52;33.28
68399;BME280;56258;52.196;13.868;2023-01-27T00:15:37;101740.34;;;19.54;32.79
68399;BME280;56258;52.196;13.868;2023-01-27T00:18:04;101747.59;;;19.53;32.91
68399;BME280;56258;52.196;13.868;2023-01-27T00:20:30;101747.91;;;19.50;32.93
68399;BME280;56258;52.196;13.868;2023-01-27T00:23:20;101748.84;;;19.59;32.89
68399;BME280;56258;52.196;13.868;2023-01-27T00:26:10;101744.75;;;19.73;32.76
68399;BME280;56258;52.196;13.868;2023-01-27T00:28:38;101739.59;;;19.88;32.69
68399;BME280;56258;52.196;13.868;2023-01-27T00:31:07;101736.69;;;20.07;32.48
68399;BME280;56258;52.196;13.868;2023-01-27T00:33:52;101732.72;;;20.19;32.41
68399;BME280;56258;52.196;13.868;2023-01-27T00:36:21;101738.56;;;20.40;31.79
68399;BME280;56258;52.196;13.868;2023-01-27T00:38:48;101737.63;;;20.50;31.74
68399;BME280;56258;52.196;13.868;2023-01-27T00:41:14;101741.38;;;20.65;31.57
68399;BME280;56258;52.196;13.868;2023-01-27T00:43:50;101747.50;;;20.75;31.61
68399;BME280;56258;52.196;13.868;2023-01-27T00:46:17;101745.34;;;20.87;31.66
68399;BME280;56258;52.196;13.868;2023-01-27T00:48:45;101743.84;;;21.01;31.43
68399;BME280;56258;52.196;13.868;2023-01-27T00:51:12;101738.09;;;21.04;31.83
68399;BME280;56258;52.196;13.868;2023-01-27T00:53:39;101736.06;;;21.06;31.57
68399;BME280;56258;52.196;13.868;2023-01-27T00:56:06;101729.84;;;21.13;31.14
68399;BME280;56258;52.196;13.868;2023-01-27T00:58:33;101745.06;;;21.22;31.03
68399;BME280;56258;52.196;13.868;2023-01-27T01:01:03;101741.69;;;21.20;31.24
68399;BME280;56258;52.196;13.868;2023-01-27T01:03:32;101755.50;;;21.17;31.71
68399;BME280;56258;52.196;13.868;2023-01-27T01:06:00;101751.13;;;21.16;31.47
68399;BME280;56258;52.196;13.868;2023-01-27T01:08:29;101749.63;;;21.22;31.43
68399;BME280;56258;52.196;13.868;2023-01-27T01:10:56;101740.97;;;21.18;31.52
68399;BME280;56258;52.196;13.868;2023-01-27T01:13:22;101750.28;;;21.24;31.02
68399;BME280;56258;52.196;13.868;2023-01-27T01:15:49;101747.94;;;21.21;31.53
68399;BME280;56258;52.196;13.868;2023-01-27T01:18:15;101754.56;;;21.26;31.47
68399;BME280;56258;52.196;13.868;2023-01-27T01:20:44;101757.94;;;21.29;31.79
68399;BME280;56258;52.196;13.868;2023-01-27T01:23:13;101756.25;;;21.27;31.74
68399;BME280;56258;52.196;13.868;2023-01-27T01:25:40;101760.31;;;21.32;31.37
68399;BME280;56258;52.196;13.868;2023-01-27T01:28:08;101761.84;;;21.42;31.69
68399;BME280;56258;52.196;13.868;2023-01-27T01:30:36;101751.88;;;21.43;31.01
68399;BME280;56258;52.196;13.868;2023-01-27T01:33:03;101755.91;;;21.39;31.44
68399;BME280;56258;52.196;13.868;2023-01-27T01:35:30;101749.84;;;21.37;31.12
68399;BME280;56258;52.196;13.868;2023-01-27T01:37:57;101736.13;;;21.38;31.32
68399;BME280;56258;52.196;13.868;2023-01-27T01:40:24;101750.34;;;21.40;31.63
68399;BME280;56258;52.196;13.868;2023-01-27T01:42:55;101755.44;;;21.43;31.45
68399;BME280;56258;52.196;13.868;2023-01-27T01:48:30;101753.41;;;21.45;31.38
68399;BME280;56258;52.196;13.868;2023-01-27T01:51:15;101750.00;;;21.51;31.31
68399;BME280;56258;52.196;13.868;2023-01-27T01:53:58;101745.78;;;21.49;31.84
68399;BME280;56258;52.196;13.868;2023-01-27T01:56:32;101742.22;;;21.48;31.21
68399;BME280;56258;52.196;13.868;2023-01-27T01:59:04;101745.28;;;21.53;31.71
68399;BME280;56258;52.196;13.868;2023-01-27T02:01:34;101742.22;;;21.57;30.85
68399;BME280;56258;52.196;13.868;2023-01-27T02:04:04;101744.09;;;21.56;31.39
68399;BME280;56258;52.196;13.868;2023-01-27T02:06:39;101735.97;;;21.56;31.63
68399;BME280;56258;52.196;13.868;2023-01-27T02:09:08;101731.91;;;21.60;31.31
68399;BME280;56258;52.196;13.868;2023-01-27T02:11:36;101746.78;;;21.64;31.30
68399;BME280;56258;52.196;13.868;2023-01-27T02:14:02;101751.50;;;21.62;31.42
68399;BME280;56258;52.196;13.868;2023-01-27T02:16:30;101757.09;;;21.69;31.26
68399;BME280;56258;52.196;13.868;2023-01-27T02:18:57;101748.81;;;21.62;31.15
68399;BME280;56258;52.196;13.868;2023-01-27T02:21:24;101755.06;;;21.71;31.10
68399;BME280;56258;52.196;13.868;2023-01-27T02:24:00;101750.84;;;21.68;31.66
68399;BME280;56258;52.196;13.868;2023-01-27T02:26:39;101747.13;;;21.61;30.92
68399;BME280;56258;52.196;13.868;2023-01-27T02:29:11;101746.09;;;21.62;31.87
68399;BME280;56258;52.196;13.868;2023-01-27T02:31:38;101748.50;;;21.65;31.26
68399;BME280;56258;52.196;13.868;2023-01-27T02:34:16;101754.06;;;21.72;31.40
68399;BME280;56258;52.196;13.868;2023-01-27T02:36:49;101755.75;;;21.73;31.33
68399;BME280;56258;52.196;13.868;2023-01-27T02:39:20;101756.94;;;21.70;31.45
68399;BME280;56258;52.196;13.868;2023-01-27T02:41:54;101762.00;;;21.73;31.03
68399;BME280;56258;52.196;13.868;2023-01-27T02:44:22;101767.09;;;21.68;31.49
68399;BME280;56258;52.196;13.868;2023-01-27T02:46:49;101769.28;;;21.73;31.58
68399;BME280;56258;52.196;13.868;2023-01-27T02:49:16;101774.00;;;21.71;30.99
68399;BME280;56258;52.196;13.868;2023-01-27T02:51:42;101773.00;;;21.72;31.04
68399;BME280;56258;52.196;13.868;2023-01-27T02:54:09;101768.78;;;21.69;31.23
68399;BME280;56258;52.196;13.868;2023-01-27T02:56:36;101768.06;;;21.75;31.62
68399;BME280;56258;52.196;13.868;2023-01-27T02:59:02;101770.78;;;21.75;31.52
68399;BME280;56258;52.196;13.868;2023-01-27T03:01:29;101766.56;;;21.81;31.26
68399;BME280;56258;52.196;13.868;2023-01-27T03:03:58;101771.97;;;21.81;31.56
68399;BME280;56258;52.196;13.868;2023-01-27T03:06:25;101765.56;;;21.82;31.62
68399;BME280;56258;52.196;13.868;2023-01-27T03:08:51;101780.41;;;21.86;31.05
68399;BME280;56258;52.196;13.868;2023-01-27T03:11:18;101764.72;;;21.81;31.32
68399;BME280;56258;52.196;13.868;2023-01-27T03:14:06;101766.72;;;21.88;30.83
68399;BME280;56258;52.196;13.868;2023-01-27T03:16:33;101771.28;;;21.87;31.36
68399;BME280;56258;52.196;13.868;2023-01-27T03:19:19;101764.34;;;21.84;31.18
68399;BME280;56258;52.196;13.868;2023-01-27T03:21:46;101764.69;;;21.90;30.96
68399;BME280;56258;52.196;13.868;2023-01-27T03:24:16;101765.56;;;21.82;30.96
68399;BME280;56258;52.196;13.868;2023-01-27T03:26:43;101777.72;;;21.86;31.41
68399;BME280;56258;52.196;13.868;2023-01-27T03:29:10;101783.13;;;21.94;31.37
68399;BME280;56258;52.196;13.868;2023-01-27T03:32:15;101785.00;;;21.94;31.13
68399;BME280;56258;52.196;13.868;2023-01-27T03:34:41;101788.53;;;21.94;31.29
68399;BME280;56258;52.196;13.868;2023-01-27T03:37:08;101789.38;;;21.95;31.21
68399;BME280;56258;52.196;13.868;2023-01-27T03:39:53;101792.28;;;21.93;31.29
68399;BME280;56258;52.196;13.868;2023-01-27T03:42:38;101798.53;;;22.02;31.30
68399;BME280;56258;52.196;13.868;2023-01-27T03:45:23;101800.38;;;22.09;31.20
68399;BME280;56258;52.196;13.868;2023-01-27T03:48:08;101799.19;;;21.88;31.31
68399;BME280;56258;52.196;13.868;2023-01-27T03:50:35;101803.47;;;21.66;31.78
68399;BME280;56258;52.196;13.868;2023-01-27T03:53:09;101804.78;;;21.45;32.13
68399;BME280;56258;52.196;13.868;2023-01-27T03:55:37;101805.09;;;21.26;32.37
68399;BME280;56258;52.196;13.868;2023-01-27T03:58:07;101802.50;;;21.08;32.56
68399;BME280;56258;52.196;13.868;2023-01-27T04:00:47;101805.81;;;20.94;32.84
68399;BME280;56258;52.196;13.868;2023-01-27T04:03:14;101801.72;;;20.82;32.59
68399;BME280;56258;52.196;13.868;2023-01-27T04:06:05;101800.31;;;20.69;32.99
68399;BME280;56258;52.196;13.868;2023-01-27T04:08:51;101788.13;;;20.57;32.91
68399;BME280;56258;52.196;13.868;2023-01-27T04:11:17;101788.94;;;20.50;32.96
68399;BME280;56258;52.196;13.868;2023-01-27T04:14:03;101796.00;;;20.43;32.86
68399;BME280;56258;52.196;13.868;2023-01-27T04:16:31;101801.53;;;20.41;32.94
68399;BME280;56258;52.196;13.868;2023-01-27T04:18:58;101804.00;;;20.34;33.31
68399;BME280;56258;52.196;13.868;2023-01-27T04:21:25;101798.31;;;20.37;33.33
68399;BME280;56258;52.196;13.868;2023-01-27T04:23:52;101794.97;;;20.44;33.17
68399;BME280;56258;52.196;13.868;2023-01-27T04:26:19;101792.97;;;20.46;32.83
68399;BME280;56258;52.196;13.868;2023-01-27T04:28:47;101789.19;;;20.38;32.57
68399;BME280;56258;52.196;13.868;2023-01-27T04:31:14;101799.78;;;20.32;32.79
68399;BME280;56258;52.196;13.868;2023-01-27T04:33:42;101789.81;;;20.32;32.94
68399;BME280;56258;52.196;13.868;2023-01-27T04:36:10;101787.28;;;20.31;33.03
68399;BME280;56258;52.196;13.868;2023-01-27T04:38:37;101785.59;;;20.30;32.83
68399;BME280;56258;52.196;13.868;2023-01-27T04:41:04;101804.66;;;20.28;32.80
68399;BME280;56258;52.196;13.868;2023-01-27T04:43:31;101800.78;;;20.31;32.74
68399;BME280;56258;52.196;13.868;2023-01-27T04:45:57;101808.03;;;20.30;32.84
68399;BME280;56258;52.196;13.868;2023-01-27T04:48:24;101803.31;;;20.32;32.68
68399;BME280;56258;52.196;13.868;2023-01-27T04:50:50;101799.28;;;20.36;33.18
68399;BME280;56258;52.196;13.868;2023-01-27T04:53:17;101801.47;;;20.33;32.47
68399;BME280;56258;52.196;13.868;2023-01-27T04:55:46;101806.50;;;20.28;32.47
68399;BME280;56258;52.196;13.868;2023-01-27T04:58:14;101809.13;;;20.37;32.61
68399;BME280;56258;52.196;13.868;2023-01-27T05:00:43;101806.50;;;20.28;32.63
68399;BME280;56258;52.196;13.868;2023-01-27T05:03:10;101814.91;;;20.25;32.37
68399;BME280;56258;52.196;13.868;2023-01-27T05:05:37;101808.38;;;20.27;32.53
68399;BME280;56258;52.196;13.868;2023-01-27T05:08:05;101809.38;;;20.26;32.57
68399;BME280;56258;52.196;13.868;2023-01-27T05:10:32;101811.00;;;20.19;32.75
68399;BME280;56258;52.196;13.868;2023-01-27T05:12:59;101809.31;;;20.18;32.70
68399;BME280;56258;52.196;13.868;2023-01-27T05:15:28;101819.13;;;20.19;32.63
68399;BME280;56258;52.196;13.868;2023-01-27T05:17:55;101813.50;;;20.13;33.20
68399;BME280;56258;52.196;13.868;2023-01-27T05:20:22;101816.84;;;20.06;33.17
68399;BME280;56258;52.196;13.868;2023-01-27T05:22:50;101812.44;;;20.05;32.95
68399;BME280;56258;52.196;13.868;2023-01-27T05:25:17;101820.16;;;20.00;32.72
68399;BME280;56258;52.196;13.868;2023-01-27T05:27:44;101820.63;;;19.96;32.74
68399;BME280;56258;52.196;13.868;2023-01-27T05:30:11;101812.91;;;20.01;33.06
68399;BME280;56258;52.196;13.868;2023-01-27T05:32:37;101825.56;;;20.00;32.89
68399;BME280;56258;52.196;13.868;2023-01-27T05:35:05;101821.66;;;19.95;32.73
68399;BME280;56258;52.196;13.868;2023-01-27T05:37:31;101824.03;;;19.98;32.79
68399;BME280;56258;52.196;13.868;2023-01-27T05:39:58;101819.28;;;19.92;32.89
68399;BME280;56258;52.196;13.868;2023-01-27T05:42:25;101823.84;;;19.99;32.60
68399;BME280;56258;52.196;13.868;2023-01-27T05:44:51;101815.84;;;19.90;33.06
68399;BME280;56258;52.196;13.868;2023-01-27T05:47:18;101827.66;;;19.89;32.81
68399;BME280;56258;52.196;13.868;2023-01-27T05:49:44;101822.09;;;19.90;32.93
68399;BME280;56258;52.196;13.868;2023-01-27T05:52:11;101834.75;;;19.90;33.13
68399;BME280;56258;52.196;13.868;2023-01-27T05:54:38;101835.59;;;19.90;32.83
68399;BME280;56258;52.196;13.868;2023-01-27T05:57:04;101851.25;;;19.87;33.26
68399;BME280;56258;52.196;13.868;2023-01-27T05:59:31;101854.28;;;19.84;33.23
68399;BME280;56258;52.196;13.868;2023-01-27T06:01:58;101848.56;;;19.87;33.06
68399;BME280;56258;52.196;13.868;2023-01-27T06:04:24;101842.47;;;19.85;32.82
68399;BME280;56258;52.196;13.868;2023-01-27T06:06:52;101857.81;;;19.84;33.03
68399;BME280;56258;52.196;13.868;2023-01-27T06:09:18;101855.97;;;19.85;33.08
68399;BME280;56258;52.196;13.868;2023-01-27T06:11:45;101858.44;;;19.78;33.32
68399;BME280;56258;52.196;13.868;2023-01-27T06:14:12;101863.38;;;19.83;33.24
68399;BME280;56258;52.196;13.868;2023-01-27T06:16:40;101866.59;;;19.86;32.94
68399;BME280;56258;52.196;13.868;2023-01-27T06:19:07;101848.88;;;19.84;32.84
68399;BME280;56258;52.196;13.868;2023-01-27T06:21:33;101857.66;;;19.86;32.67
68399;BME280;56258;52.196;13.868;2023-01-27T06:24:00;101854.81;;;19.87;33.12
68399;BME280;56258;52.196;13.868;2023-01-27T06:26:26;101859.03;;;19.90;33.04
68399;BME280;56258;52.196;13.868;2023-01-27T06:28:55;101860.44;;;19.94;32.81
68399;BME280;56258;52.196;13.868;2023-01-27T06:31:22;101862.13;;;19.95;33.01
68399;BME280;56258;52.196;13.868;2023-01-27T06:33:50;101867.69;;;19.93;32.58
68399;BME280;56258;52.196;13.868;2023-01-27T06:36:19;101863.81;;;19.96;32.53
68399;BME280;56258;52.196;13.868;2023-01-27T06:38:47;101868.22;;;19.97;32.77
68399;BME280;56258;52.196;13.868;2023-01-27T06:41:14;101859.59;;;19.93;32.78
68399;BME280;56258;52.196;13.868;2023-01-27T06:43:40;101866.84;;;19.93;33.14
68399;BME280;56258;52.196;13.868;2023-01-27T06:46:07;101868.69;;;19.92;32.75
68399;BME280;56258;52.196;13.868;2023-01-27T06:48:34;101877.63;;;19.93;32.80
68399;BME280;56258;52.196;13.868;2023-01-27T06:51:00;101872.69;;;19.88;32.84
68399;BME280;56258;52.196;13.868;2023-01-27T06:53:27;101871.38;;;19.92;33.16
68399;BME280;56258;52.196;13.868;2023-01-27T06:55:55;101869.81;;;19.90;32.81
68399;BME280;56258;52.196;13.868;2023-01-27T06:58:22;101878.09;;;19.88;32.90
68399;BME280;56258;52.196;13.868;2023-01-27T07:00:49;101881.47;;;19.90;32.89
68399;BME280;56258;52.196;13.868;2023-01-27T07:03:16;101890.97;;;19.94;32.53
68399;BME280;56258;52.196;13.868;2023-01-27T07:05:43;101878.56;;;19.84;32.79
68399;BME280;56258;52.196;13.868;2023-01-27T07:08:10;101883.31;;;19.90;32.82
68399;BME280;56258;52.196;13.868;2023-01-27T07:10:36;101885.34;;;19.88;33.02
68399;BME280;56258;52.196;13.868;2023-01-27T07:13:07;101888.72;;;19.90;32.86
68399;BME280;56258;52.196;13.868;2023-01-27T07:15:34;101887.34;;;19.86;32.50
68399;BME280;56258;52.196;13.868;2023-01-27T07:18:01;101883.63;;;19.87;33.20
68399;BME280;56258;52.196;13.868;2023-01-27T07:20:30;101890.19;;;19.84;32.71
68399;BME280;56258;52.196;13.868;2023-01-27T07:23:02;101895.13;;;19.89;32.97
68399;BME280;56258;52.196;13.868;2023-01-27T07:25:33;101899.16;;;19.85;33.57
68399;BME280;56258;52.196;13.868;2023-01-27T07:28:01;101894.75;;;19.84;33.17
68399;BME280;56258;52.196;13.868;2023-01-27T07:30:27;101904.53;;;19.85;33.25
68399;BME280;56258;52.196;13.868;2023-01-27T07:32:54;101899.16;;;19.85;33.14
68399;BME280;56258;52.196;13.868;2023-01-27T07:35:22;101892.75;;;19.86;33.15
68399;BME280;56258;52.196;13.868;2023-01-27T07:37:49;101894.59;;;20.03;32.93
68399;BME280;56258;52.196;13.868;2023-01-27T07:40:16;101886.41;;;19.95;33.33
68399;BME280;56258;52.196;13.868;2023-01-27T07:42:43;101893.19;;;19.99;33.30
68399;BME280;56258;52.196;13.868;2023-01-27T07:45:10;101901.97;;;20.01;33.40
68399;BME280;56258;52.196;13.868;2023-01-27T07:47:37;101906.38;;;20.02;33.14
68399;BME280;56258;52.196;13.868;2023-01-27T07:50:04;101911.94;;;20.00;33.09
68399;BME280;56258;52.196;13.868;2023-01-27T07:52:30;101916.31;;;20.01;33.06
68399;BME280;56258;52.196;13.868;2023-01-27T07:54:57;101914.47;;;20.02;33.44
68399;BME280;56258;52.196;13.868;2023-01-27T07:57:24;101920.59;;;20.04;33.28
68399;BME280;56258;52.196;13.868;2023-01-27T07:59:50;101919.75;;;20.03;33.46
68399;BME280;56258;52.196;13.868;2023-01-27T08:02:21;101924.66;;;20.08;33.04
68399;BME280;56258;52.196;13.868;2023-01-27T08:04:49;101927.00;;;20.03;33.57
68399;BME280;56258;52.196;13.868;2023-01-27T08:07:19;101926.81;;;20.04;33.03
68399;BME280;56258;52.196;13.868;2023-01-27T08:09:46;101920.72;;;20.02;33.37
68399;BME280;56258;52.196;13.868;2023-01-27T08:12:12;101929.69;;;20.03;32.91
68399;BME280;56258;52.196;13.868;2023-01-27T08:14:39;101929.97;;;20.00;33.28
68399;BME280;56258;52.196;13.868;2023-01-27T08:17:05;101931.81;;;19.99;33.23
68399;BME280;56258;52.196;13.868;2023-01-27T08:19:32;101918.66;;;19.96;33.40
68399;BME280;56258;52.196;13.868;2023-01-27T08:21:59;101922.72;;;20.00;32.92
68399;BME280;56258;52.196;13.868;2023-01-27T08:24:25;101918.34;;;19.99;33.55
68399;BME280;56258;52.196;13.868;2023-01-27T08:26:52;101928.28;;;19.99;33.03
68399;BME280;56258;52.196;13.868;2023-01-27T08:29:19;101927.75;;;19.95;33.53
68399;BME280;56258;52.196;13.868;2023-01-27T08:31:47;101930.13;;;19.98;33.30
68399;BME280;56258;52.196;13.868;2023-01-27T08:34:13;101925.22;;;19.94;33.05
68399;BME280;56258;52.196;13.868;2023-01-27T08:36:42;101925.22;;;19.94;33.23
68399;BME280;56258;52.196;13.868;2023-01-27T08:39:09;101926.28;;;20.01;32.92
68399;BME280;56258;52.196;13.868;2023-01-27T08:41:36;101928.28;;;19.99;33.11
68399;BME280;56258;52.196;13.868;2023-01-27T08:44:03;101934.69;;;19.98;33.31
68399;BME280;56258;52.196;13.868;2023-01-27T08:46:30;101935.84;;;19.95;33.46
68399;BME280;56258;52.196;13.868;2023-01-27T08:48:56;101934.00;;;19.96;33.30
68399;BME280;56258;52.196;13.868;2023-01-27T08:51:23;101929.59;;;19.95;33.03
68399;BME280;56258;52.196;13.868;2023-01-27T08:53:50;101937.69;;;19.95;33.15
68399;BME280;56258;52.196;13.868;2023-01-27T08:56:16;101933.91;;;19.88;33.19
68399;BME280;56258;52.196;13.868;2023-01-27T08:58:43;101946.25;;;19.90;33.29
68399;BME280;56258;52.196;13.868;2023-01-27T09:01:13;101943.94;;;19.95;33.40
68399;BME280;56258;52.196;13.868;2023-01-27T09:03:40;101943.69;;;19.89;32.84
68399;BME280;56258;52.196;13.868;2023-01-27T09:06:08;101942.00;;;19.88;33.12
68399;BME280;56258;52.196;13.868;2023-01-27T09:08:36;101938.31;;;19.89;33.36
68399;BME280;56258;52.196;13.868;2023-01-27T09:11:13;101947.72;;;19.85;33.32
68399;BME280;56258;52.196;13.868;2023-01-27T09:13:41;101943.31;;;19.84;33.04
68399;BME280;56258;52.196;13.868;2023-01-27T09:16:08;101945.03;;;19.85;33.20
68399;BME280;56258;52.196;13.868;2023-01-27T09:18:35;101942.31;;;19.85;33.15
68399;BME280;56258;52.196;13.868;2023-01-27T09:21:04;101943.00;;;19.87;32.95
68399;BME280;56258;52.196;13.868;2023-01-27T09:23:31;101951.00;;;19.78;33.13
68399;BME280;56258;52.196;13.868;2023-01-27T09:25:58;101950.72;;;19.81;32.93
68399;BME280;56258;52.196;13.868;2023-01-27T09:28:25;101944.16;;;19.84;33.07
68399;BME280;56258;52.196;13.868;2023-01-27T09:30:55;101954.22;;;19.92;33.21
68399;BME280;56258;52.196;13.868;2023-01-27T09:33:22;101949.78;;;19.91;32.67
68399;BME280;56258;52.196;13.868;2023-01-27T09:35:58;101950.09;;;19.88;32.75
68399;BME280;56258;52.196;13.868;2023-01-27T09:38:29;101949.56;;;19.84;33.00
68399;BME280;56258;52.196;13.868;2023-01-27T09:55:21;101957.59;;;19.94;33.03
68399;BME280;56258;52.196;13.868;2023-01-27T09:58:03;101951.34;;;19.93;33.25
68399;BME280;56258;52.196;13.868;2023-01-27T10:14:59;101955.91;;;19.93;32.74
68399;BME280;56258;52.196;13.868;2023-01-27T10:23:48;101960.38;;;19.84;33.07
68399;BME280;56258;52.196;13.868;2023-01-27T10:26:31;101964.06;;;19.83;33.08
68399;BME280;56258;52.196;13.868;2023-01-27T10:29:09;101970.47;;;19.82;33.23
68399;BME280;56258;52.196;13.868;2023-01-27T10:32:00;101965.22;;;19.80;32.98
68399;BME280;56258;52.196;13.868;2023-01-27T10:34:45;101973.44;;;19.79;33.29
68399;BME280;56258;52.196;13.868;2023-01-27T10:39:56;101979.84;;;19.78;33.10
68399;BME280;56258;52.196;13.868;2023-01-27T10:45:55;101975.31;;;19.78;33.23
68399;BME280;56258;52.196;13.868;2023-01-27T10:48:26;101979.84;;;19.78;32.76
68399;BME280;56258;52.196;13.868;2023-01-27T10:51:07;101981.69;;;19.77;33.22
68399;BME280;56258;52.196;13.868;2023-01-27T10:53:55;101976.47;;;19.76;32.83
68399;BME280;56258;52.196;13.868;2023-01-27T10:56:25;101980.00;;;19.76;33.17
68399;BME280;56258;52.196;13.868;2023-01-27T11:01:34;101974.28;;;19.79;32.86
68399;BME280;56258;52.196;13.868;2023-01-27T11:06:39;101972.69;;;19.87;33.28
68399;BME280;56258;52.196;13.868;2023-01-27T11:09:12;101975.81;;;19.92;33.16
68399;BME280;56258;52.196;13.868;2023-01-27T11:11:42;101965.13;;;19.90;32.90
68399;BME280;56258;52.196;13.868;2023-01-27T11:16:57;101967.75;;;20.00;32.82
68399;BME280;56258;52.196;13.868;2023-01-27T11:20:00;101969.31;;;20.02;32.79
68399;BME280;56258;52.196;13.868;2023-01-27T11:22:45;101968.31;;;20.03;32.74
68399;BME280;56258;52.196;13.868;2023-01-27T11:31:25;101965.06;;;20.00;33.33
68399;BME280;56258;52.196;13.868;2023-01-27T11:36:44;101958.88;;;19.90;33.25
68399;BME280;56258;52.196;13.868;2023-01-27T11:39:14;101959.91;;;19.89;33.58
68399;BME280;56258;52.196;13.868;2023-01-27T11:41:46;101951.41;;;19.84;33.78
68399;BME280;56258;52.196;13.868;2023-01-27T11:44:18;101961.31;;;19.93;33.41
68399;BME280;56258;52.196;13.868;2023-01-27T11:46:47;101950.50;;;19.93;33.78
68399;BME280;56258;52.196;13.868;2023-01-27T11:49:21;101954.44;;;19.98;33.23
68399;BME280;56258;52.196;13.868;2023-01-27T11:51:48;101951.19;;;19.95;33.29
68399;BME280;56258;52.196;13.868;2023-01-27T11:54:19;101942.78;;;19.98;34.21
68399;BME280;56258;52.196;13.868;2023-01-27T11:56:48;101944.00;;;19.86;34.03
68399;BME280;56258;52.196;13.868;2023-01-27T11:59:19;101954.56;;;19.79;34.10
68399;BME280;56258;52.196;13.868;2023-01-27T12:01:58;101938.47;;;19.69;34.27
68399;BME280;56258;52.196;13.868;2023-01-27T12:07:09;101948.09;;;19.72;34.13
68399;BME280;56258;52.196;13.868;2023-01-27T12:09:39;101954.50;;;19.71;34.12
68399;BME280;56258;52.196;13.868;2023-01-27T12:17:38;101952.09;;;19.68;33.89
68399;BME280;56258;52.196;13.868;2023-01-27T12:22:56;101943.88;;;19.69;33.81
68399;BME280;56258;52.196;13.868;2023-01-27T12:25:26;101937.22;;;19.64;33.83
68399;BME280;56258;52.196;13.868;2023-01-27T12:27:59;101932.66;;;19.64;33.77
68399;BME280;56258;52.196;13.868;2023-01-27T12:30:32;101941.91;;;19.62;33.47
68399;BME280;56258;52.196;13.868;2023-01-27T12:33:18;101934.66;;;19.62;33.69
68399;BME280;56258;52.196;13.868;2023-01-27T12:35:48;101942.59;;;19.64;33.98
68399;BME280;56258;52.196;13.868;2023-01-27T12:38:19;101947.56;;;19.68;33.98
68399;BME280;56258;52.196;13.868;2023-01-27T12:40:47;101948.69;;;19.66;33.40
68399;BME280;56258;52.196;13.868;2023-01-27T12:43:17;101950.69;;;19.64;33.86
68399;BME280;56258;52.196;13.868;2023-01-27T12:48:46;101934.28;;;19.57;33.71
68399;BME280;56258;52.196;13.868;2023-01-27T12:53:42;101930.88;;;19.55;33.97
68399;BME280;56258;52.196;13.868;2023-01-27T12:56:15;101944.44;;;19.63;33.71
68399;BME280;56258;52.196;13.868;2023-01-27T12:58:44;101939.69;;;19.57;33.87
68399;BME280;56258;52.196;13.868;2023-01-27T13:01:31;101947.00;;;19.65;33.68
68399;BME280;56258;52.196;13.868;2023-01-27T13:04:05;101943.06;;;19.59;33.89
68399;BME280;56258;52.196;13.868;2023-01-27T13:06:42;101953.56;;;19.62;33.97
68399;BME280;56258;52.196;13.868;2023-01-27T13:09:26;101942.63;;;19.54;33.83
68399;BME280;56258;52.196;13.868;2023-01-27T13:11:56;101957.63;;;19.66;33.40
68399;BME280;56258;52.196;13.868;2023-01-27T13:14:31;101959.31;;;19.67;33.55
68399;BME280;56258;52.196;13.868;2023-01-27T13:17:00;101960.78;;;19.62;34.03
68399;BME280;56258;52.196;13.868;2023-01-27T13:19:38;101948.69;;;19.66;33.40
68399;BME280;56258;52.196;13.868;2023-01-27T13:22:15;101955.56;;;19.60;33.67
68399;BME280;56258;52.196;13.868;2023-01-27T13:24:47;101960.63;;;19.63;33.75
68399;BME280;56258;52.196;13.868;2023-01-27T13:27:18;101964.34;;;19.62;33.57
68399;BME280;56258;52.196;13.868;2023-01-27T13:30:08;101959.78;;;19.63;33.66
68399;BME280;56258;52.196;13.868;2023-01-27T13:32:40;101959.25;;;19.59;33.83
68399;BME280;56258;52.196;13.868;2023-01-27T13:35:25;101956.25;;;19.62;33.44
68399;BME280;56258;52.196;13.868;2023-01-27T13:38:21;101955.56;;;19.60;33.70
68399;BME280;56258;52.196;13.868;2023-01-27T13:40:49;101955.88;;;19.57;34.08
68399;BME280;56258;52.196;13.868;2023-01-27T13:43:32;101962.66;;;19.61;33.88
68399;BME280;56258;52.196;13.868;2023-01-27T13:48:37;101968.28;;;19.68;33.76
68399;BME280;56258;52.196;13.868;2023-01-27T13:51:28;101975.41;;;19.69;33.16
68399;BME280;56258;52.196;13.868;2023-01-27T13:54:00;101977.25;;;19.68;34.01
68399;BME280;56258;52.196;13.868;2023-01-27T14:01:42;101979.63;;;19.71;33.65
68399;BME280;56258;52.196;13.868;2023-01-27T14:04:54;101972.53;;;19.70;33.82
68399;BME280;56258;52.196;13.868;2023-01-27T14:07:36;101977.09;;;19.70;33.58
68399;BME280;56258;52.196;13.868;2023-01-27T14:10:27;101986.88;;;19.71;33.88
68399;BME280;56258;52.196;13.868;2023-01-27T14:18:35;101983.06;;;19.64;34.17
68399;BME280;56258;52.196;13.868;2023-01-27T14:29:32;101997.25;;;19.66;33.85
68399;BME280;56258;52.196;13.868;2023-01-27T14:34:51;101994.41;;;19.67;33.47
68399;BME280;56258;52.196;13.868;2023-01-27T14:37:36;102003.13;;;19.61;33.38
68399;BME280;56258;52.196;13.868;2023-01-27T14:46:12;102000.00;;;19.56;33.70